sensor_id;sensor_type;location;lat;lon;timestamp;temperature;humidity
10903;DHT22;5504;47.312;11.060;2023-05-29T00:00:13;12.90;90.40
10903;DHT22;5504;47.312;11.060;2023-05-29T00:02:39;12.90;90.30
10903;DHT22;5504;47.312;11.060;2023-05-29T00:05:12;12.90;90.40
10903;DHT22;5504;47.312;11.060;2023-05-29T00:07:39;12.90;90.40
10903;DHT22;5504;47.312;11.060;2023-05-29T00:10:06;12.80;90.60
10903;DHT22;5504;47.312;11.060;2023-05-29T00:12:33;12.90;90.60
10903;DHT22;5504;47.312;11.060;2023-05-29T00:14:59;12.90;90.80
10903;DHT22;5504;47.312;11.060;2023-05-29T00:17:25;13.00;90.60
10903;DHT22;5504;47.312;11.060;2023-05-29T00:19:51;13.00;90.60
10903;DHT22;5504;47.312;11.060;2023-05-29T00:22:17;12.90;90.50
10903;DHT22;5504;47.312;11.060;2023-05-29T00:24:43;13.00;90.70
10903;DHT22;5504;47.312;11.060;2023-05-29T00:27:09;13.00;90.50
10903;DHT22;5504;47.312;11.060;2023-05-29T00:29:38;12.90;90.40
10903;DHT22;5504;47.312;11.060;2023-05-29T00:32:04;12.80;90.70
10903;DHT22;5504;47.312;11.060;2023-05-29T00:34:31;12.80;90.80
10903;DHT22;5504;47.312;11.060;2023-05-29T00:36:56;12.80;90.70
10903;DHT22;5504;47.312;11.060;2023-05-29T00:39:22;12.70;90.60
10903;DHT22;5504;47.312;11.060;2023-05-29T00:41:48;12.60;90.70
10903;DHT22;5504;47.312;11.060;2023-05-29T00:44:17;12.60;90.90
10903;DHT22;5504;47.312;11.060;2023-05-29T00:46:43;12.70;90.90
10903;DHT22;5504;47.312;11.060;2023-05-29T00:49:09;12.60;90.90
10903;DHT22;5504;47.312;11.060;2023-05-29T00:51:37;12.70;90.90
10903;DHT22;5504;47.312;11.060;2023-05-29T00:54:04;12.70;91.00
10903;DHT22;5504;47.312;11.060;2023-05-29T00:56:32;12.70;90.80
10903;DHT22;5504;47.312;11.060;2023-05-29T00:58:59;12.60;90.80
10903;DHT22;5504;47.312;11.060;2023-05-29T01:01:24;12.40;90.80
10903;DHT22;5504;47.312;11.060;2023-05-29T01:03:51;12.40;91.10
10903;DHT22;5504;47.312;11.060;2023-05-29T01:06:21;12.40;91.20
10903;DHT22;5504;47.312;11.060;2023-05-29T01:08:46;12.50;90.90
10903;DHT22;5504;47.312;11.060;2023-05-29T01:11:41;12.40;90.90
10903;DHT22;5504;47.312;11.060;2023-05-29T01:14:10;12.30;91.00
10903;DHT22;5504;47.312;11.060;2023-05-29T01:16:44;12.30;91.30
10903;DHT22;5504;47.312;11.060;2023-05-29T01:22:43;12.30;91.20
10903;DHT22;5504;47.312;11.060;2023-05-29T01:25:21;12.30;91.00
10903;DHT22;5504;47.312;11.060;2023-05-29T01:27:49;12.40;91.30
10903;DHT22;5504;47.312;11.060;2023-05-29T01:30:18;12.40;91.00
10903;DHT22;5504;47.312;11.060;2023-05-29T01:32:46;12.40;90.70
10903;DHT22;5504;47.312;11.060;2023-05-29T01:35:12;12.30;90.80
10903;DHT22;5504;47.312;11.060;2023-05-29T01:37:37;12.30;91.10
10903;DHT22;5504;47.312;11.060;2023-05-29T01:40:03;12.30;91.00
10903;DHT22;5504;47.312;11.060;2023-05-29T01:42:30;12.30;90.90
10903;DHT22;5504;47.312;11.060;2023-05-29T01:44:57;12.20;91.00
10903;DHT22;5504;47.312;11.060;2023-05-29T01:47:23;12.20;91.40
10903;DHT22;5504;47.312;11.060;2023-05-29T01:49:51;12.00;91.40
10903;DHT22;5504;47.312;11.060;2023-05-29T01:52:17;11.80;91.70
10903;DHT22;5504;47.312;11.060;2023-05-29T01:54:44;11.90;91.80
10903;DHT22;5504;47.312;11.060;2023-05-29T01:57:10;11.90;91.80
10903;DHT22;5504;47.312;11.060;2023-05-29T01:59:37;12.00;91.70
10903;DHT22;5504;47.312;11.060;2023-05-29T02:02:09;12.00;91.50
10903;DHT22;5504;47.312;11.060;2023-05-29T02:04:35;12.00;91.30
10903;DHT22;5504;47.312;11.060;2023-05-29T02:07:01;12.00;91.60
10903;DHT22;5504;47.312;11.060;2023-05-29T02:09:27;11.90;91.60
10903;DHT22;5504;47.312;11.060;2023-05-29T02:11:54;12.00;91.70
10903;DHT22;5504;47.312;11.060;2023-05-29T02:14:20;12.00;91.80
10903;DHT22;5504;47.312;11.060;2023-05-29T02:16:45;11.90;91.70
10903;DHT22;5504;47.312;11.060;2023-05-29T02:19:11;11.80;91.60
10903;DHT22;5504;47.312;11.060;2023-05-29T02:21:40;11.80;91.80
10903;DHT22;5504;47.312;11.060;2023-05-29T02:24:06;11.90;92.00
10903;DHT22;5504;47.312;11.060;2023-05-29T02:26:32;11.90;91.90
10903;DHT22;5504;47.312;11.060;2023-05-29T02:28:58;11.90;91.70
10903;DHT22;5504;47.312;11.060;2023-05-29T02:31:24;11.70;91.60
10903;DHT22;5504;47.312;11.060;2023-05-29T02:33:50;11.80;91.70
10903;DHT22;5504;47.312;11.060;2023-05-29T02:36:15;11.70;91.60
10903;DHT22;5504;47.312;11.060;2023-05-29T02:38:42;11.60;91.90
10903;DHT22;5504;47.312;11.060;2023-05-29T02:41:07;11.60;92.10
10903;DHT22;5504;47.312;11.060;2023-05-29T02:43:34;11.70;92.20
10903;DHT22;5504;47.312;11.060;2023-05-29T02:46:00;11.70;92.00
10903;DHT22;5504;47.312;11.060;2023-05-29T02:48:26;11.70;92.00
10903;DHT22;5504;47.312;11.060;2023-05-29T02:50:51;11.70;92.30
10903;DHT22;5504;47.312;11.060;2023-05-29T02:53:17;11.70;91.90
10903;DHT22;5504;47.312;11.060;2023-05-29T02:55:44;11.70;91.80
10903;DHT22;5504;47.312;11.060;2023-05-29T02:58:10;11.60;91.90
10903;DHT22;5504;47.312;11.060;2023-05-29T03:00:37;11.60;92.20
10903;DHT22;5504;47.312;11.060;2023-05-29T03:03:03;11.60;92.00
10903;DHT22;5504;47.312;11.060;2023-05-29T03:05:29;11.50;91.70
10903;DHT22;5504;47.312;11.060;2023-05-29T03:07:55;11.40;91.80
10903;DHT22;5504;47.312;11.060;2023-05-29T03:10:21;11.50;92.10
10903;DHT22;5504;47.312;11.060;2023-05-29T03:12:47;11.60;92.00
10903;DHT22;5504;47.312;11.060;2023-05-29T03:15:13;11.40;92.00
10903;DHT22;5504;47.312;11.060;2023-05-29T03:17:39;11.50;92.00
10903;DHT22;5504;47.312;11.060;2023-05-29T03:20:06;11.50;92.00
10903;DHT22;5504;47.312;11.060;2023-05-29T03:22:34;11.60;91.80
10903;DHT22;5504;47.312;11.060;2023-05-29T03:24:59;11.40;91.60
10903;DHT22;5504;47.312;11.060;2023-05-29T03:27:25;11.10;92.20
10903;DHT22;5504;47.312;11.060;2023-05-29T03:29:51;11.20;92.60
10903;DHT22;5504;47.312;11.060;2023-05-29T03:32:18;11.20;92.60
10903;DHT22;5504;47.312;11.060;2023-05-29T03:34:43;11.20;92.40
10903;DHT22;5504;47.312;11.060;2023-05-29T03:37:09;11.20;92.40
10903;DHT22;5504;47.312;11.060;2023-05-29T03:39:35;11.30;92.60
10903;DHT22;5504;47.312;11.060;2023-05-29T03:42:01;11.30;92.50
10903;DHT22;5504;47.312;11.060;2023-05-29T03:44:28;11.40;92.20
10903;DHT22;5504;47.312;11.060;2023-05-29T03:46:54;11.40;92.20
10903;DHT22;5504;47.312;11.060;2023-05-29T03:49:19;11.30;92.40
10903;DHT22;5504;47.312;11.060;2023-05-29T03:51:45;11.40;92.50
10903;DHT22;5504;47.312;11.060;2023-05-29T03:54:11;11.50;92.30
10903;DHT22;5504;47.312;11.060;2023-05-29T03:56:36;11.60;92.20
10903;DHT22;5504;47.312;11.060;2023-05-29T03:59:02;11.60;92.10
10903;DHT22;5504;47.312;11.060;2023-05-29T04:01:28;11.60;91.90
10903;DHT22;5504;47.312;11.060;2023-05-29T04:03:54;11.50;91.80
10903;DHT22;5504;47.312;11.060;2023-05-29T04:06:20;11.30;91.90
10903;DHT22;5504;47.312;11.060;2023-05-29T04:08:47;11.20;92.30
10903;DHT22;5504;47.312;11.060;2023-05-29T04:11:14;11.30;92.70
10903;DHT22;5504;47.312;11.060;2023-05-29T04:13:40;11.50;92.90
10903;DHT22;5504;47.312;11.060;2023-05-29T04:16:06;11.50;92.50
10903;DHT22;5504;47.312;11.060;2023-05-29T04:18:32;11.60;92.40
10903;DHT22;5504;47.312;11.060;2023-05-29T04:20:58;11.50;92.10
10903;DHT22;5504;47.312;11.060;2023-05-29T04:23:23;11.50;92.20
10903;DHT22;5504;47.312;11.060;2023-05-29T04:25:49;11.50;92.40
10903;DHT22;5504;47.312;11.060;2023-05-29T04:28:18;11.60;92.70
10903;DHT22;5504;47.312;11.060;2023-05-29T04:30:47;11.70;92.80
10903;DHT22;5504;47.312;11.060;2023-05-29T04:33:13;11.80;92.70
10903;DHT22;5504;47.312;11.060;2023-05-29T04:35:40;11.80;92.60
10903;DHT22;5504;47.312;11.060;2023-05-29T04:38:09;12.00;92.60
10903;DHT22;5504;47.312;11.060;2023-05-29T04:40:35;12.00;92.50
10903;DHT22;5504;47.312;11.060;2023-05-29T04:43:02;12.20;92.70
10903;DHT22;5504;47.312;11.060;2023-05-29T04:45:27;12.30;92.70
10903;DHT22;5504;47.312;11.060;2023-05-29T04:47:53;12.20;92.40
10903;DHT22;5504;47.312;11.060;2023-05-29T04:50:21;12.20;93.00
10903;DHT22;5504;47.312;11.060;2023-05-29T04:52:48;12.50;93.20
10903;DHT22;5504;47.312;11.060;2023-05-29T04:55:14;12.50;93.10
10903;DHT22;5504;47.312;11.060;2023-05-29T04:57:40;12.60;93.20
10903;DHT22;5504;47.312;11.060;2023-05-29T05:00:06;12.70;93.10
10903;DHT22;5504;47.312;11.060;2023-05-29T05:02:33;12.70;93.10
10903;DHT22;5504;47.312;11.060;2023-05-29T05:04:59;12.90;93.00
10903;DHT22;5504;47.312;11.060;2023-05-29T05:07:25;13.10;92.70
10903;DHT22;5504;47.312;11.060;2023-05-29T05:09:51;13.30;92.20
10903;DHT22;5504;47.312;11.060;2023-05-29T05:12:16;13.40;92.10
10903;DHT22;5504;47.312;11.060;2023-05-29T05:14:42;13.50;91.90
10903;DHT22;5504;47.312;11.060;2023-05-29T05:17:08;13.70;91.90
10903;DHT22;5504;47.312;11.060;2023-05-29T05:19:33;13.80;91.60
10903;DHT22;5504;47.312;11.060;2023-05-29T05:21:59;13.90;91.20
10903;DHT22;5504;47.312;11.060;2023-05-29T05:24:25;14.10;91.30
10903;DHT22;5504;47.312;11.060;2023-05-29T05:26:51;14.20;90.80
10903;DHT22;5504;47.312;11.060;2023-05-29T05:29:16;14.40;90.80
10903;DHT22;5504;47.312;11.060;2023-05-29T05:31:42;14.60;90.20
10903;DHT22;5504;47.312;11.060;2023-05-29T05:34:08;14.70;89.70
10903;DHT22;5504;47.312;11.060;2023-05-29T05:36:33;14.80;89.10
10903;DHT22;5504;47.312;11.060;2023-05-29T05:38:59;14.90;88.40
10903;DHT22;5504;47.312;11.060;2023-05-29T05:41:25;15.10;89.00
10903;DHT22;5504;47.312;11.060;2023-05-29T05:43:50;15.30;89.30
10903;DHT22;5504;47.312;11.060;2023-05-29T05:46:16;15.30;88.20
10903;DHT22;5504;47.312;11.060;2023-05-29T05:48:43;15.60;88.70
10903;DHT22;5504;47.312;11.060;2023-05-29T05:51:09;15.80;88.00
10903;DHT22;5504;47.312;11.060;2023-05-29T05:53:36;16.00;87.50
10903;DHT22;5504;47.312;11.060;2023-05-29T05:56:01;16.30;87.10
10903;DHT22;5504;47.312;11.060;2023-05-29T05:58:27;16.60;86.50
10903;DHT22;5504;47.312;11.060;2023-05-29T06:00:52;16.70;84.00
10903;DHT22;5504;47.312;11.060;2023-05-29T06:03:18;16.80;85.70
10903;DHT22;5504;47.312;11.060;2023-05-29T06:05:44;17.10;85.50
10903;DHT22;5504;47.312;11.060;2023-05-29T06:08:10;16.90;84.80
10903;DHT22;5504;47.312;11.060;2023-05-29T06:10:36;17.00;81.90
10903;DHT22;5504;47.312;11.060;2023-05-29T06:13:02;17.00;81.90
10903;DHT22;5504;47.312;11.060;2023-05-29T06:15:27;17.30;81.00
10903;DHT22;5504;47.312;11.060;2023-05-29T06:17:53;17.60;78.70
10903;DHT22;5504;47.312;11.060;2023-05-29T06:20:21;17.80;80.60
10903;DHT22;5504;47.312;11.060;2023-05-29T06:22:47;18.00;78.20
10903;DHT22;5504;47.312;11.060;2023-05-29T06:25:16;18.10;76.20
10903;DHT22;5504;47.312;11.060;2023-05-29T06:27:44;18.20;76.00
10903;DHT22;5504;47.312;11.060;2023-05-29T06:30:10;18.70;80.20
10903;DHT22;5504;47.312;11.060;2023-05-29T06:32:36;19.30;78.60
10903;DHT22;5504;47.312;11.060;2023-05-29T06:35:02;19.40;73.90
10903;DHT22;5504;47.312;11.060;2023-05-29T06:37:29;19.10;73.40
10903;DHT22;5504;47.312;11.060;2023-05-29T06:39:54;19.40;77.30
10903;DHT22;5504;47.312;11.060;2023-05-29T06:42:20;19.70;73.90
10903;DHT22;5504;47.312;11.060;2023-05-29T06:44:46;19.80;73.00
10903;DHT22;5504;47.312;11.060;2023-05-29T06:47:11;20.20;75.10
10903;DHT22;5504;47.312;11.060;2023-05-29T06:49:37;20.30;70.40
10903;DHT22;5504;47.312;11.060;2023-05-29T06:52:03;20.50;71.30
10903;DHT22;5504;47.312;11.060;2023-05-29T06:54:28;20.40;68.90
10903;DHT22;5504;47.312;11.060;2023-05-29T06:56:54;20.30;70.40
10903;DHT22;5504;47.312;11.060;2023-05-29T06:59:20;20.60;70.10
10903;DHT22;5504;47.312;11.060;2023-05-29T07:01:46;20.50;67.30
10903;DHT22;5504;47.312;11.060;2023-05-29T07:04:12;20.60;71.90
10903;DHT22;5504;47.312;11.060;2023-05-29T07:06:37;21.40;70.50
10903;DHT22;5504;47.312;11.060;2023-05-29T07:09:04;22.00;68.00
10903;DHT22;5504;47.312;11.060;2023-05-29T07:11:30;22.20;64.30
10903;DHT22;5504;47.312;11.060;2023-05-29T07:13:55;21.90;66.00
10903;DHT22;5504;47.312;11.060;2023-05-29T07:16:21;21.10;63.80
10903;DHT22;5504;47.312;11.060;2023-05-29T07:18:47;21.10;62.90
10903;DHT22;5504;47.312;11.060;2023-05-29T07:21:12;20.10;63.20
10903;DHT22;5504;47.312;11.060;2023-05-29T07:23:39;21.20;67.80
10903;DHT22;5504;47.312;11.060;2023-05-29T07:26:05;21.30;65.20
10903;DHT22;5504;47.312;11.060;2023-05-29T07:28:31;21.50;66.20
10903;DHT22;5504;47.312;11.060;2023-05-29T07:30:57;22.10;67.40
10903;DHT22;5504;47.312;11.060;2023-05-29T07:33:23;21.70;63.20
10903;DHT22;5504;47.312;11.060;2023-05-29T07:35:48;21.70;63.60
10903;DHT22;5504;47.312;11.060;2023-05-29T07:38:15;22.10;64.40
10903;DHT22;5504;47.312;11.060;2023-05-29T07:40:41;22.40;62.30
10903;DHT22;5504;47.312;11.060;2023-05-29T07:43:08;23.10;63.80
10903;DHT22;5504;47.312;11.060;2023-05-29T07:45:34;23.30;61.60
10903;DHT22;5504;47.312;11.060;2023-05-29T07:48:00;22.40;60.00
10903;DHT22;5504;47.312;11.060;2023-05-29T07:50:25;22.70;60.50
10903;DHT22;5504;47.312;11.060;2023-05-29T07:52:51;21.90;62.00
10903;DHT22;5504;47.312;11.060;2023-05-29T07:55:18;22.40;62.20
10903;DHT22;5504;47.312;11.060;2023-05-29T07:57:43;22.50;61.30
10903;DHT22;5504;47.312;11.060;2023-05-29T08:00:09;22.00;61.20
10903;DHT22;5504;47.312;11.060;2023-05-29T08:02:37;21.60;62.60
10903;DHT22;5504;47.312;11.060;2023-05-29T08:05:04;21.80;66.70
10903;DHT22;5504;47.312;11.060;2023-05-29T08:07:29;21.80;60.70
10903;DHT22;5504;47.312;11.060;2023-05-29T08:09:56;21.80;67.70
10903;DHT22;5504;47.312;11.060;2023-05-29T08:12:21;22.50;63.50
10903;DHT22;5504;47.312;11.060;2023-05-29T08:14:47;23.40;64.50
10903;DHT22;5504;47.312;11.060;2023-05-29T08:17:13;23.70;61.30
10903;DHT22;5504;47.312;11.060;2023-05-29T08:19:38;24.20;62.50
10903;DHT22;5504;47.312;11.060;2023-05-29T08:22:04;24.10;58.90
10903;DHT22;5504;47.312;11.060;2023-05-29T08:24:31;24.10;58.00
10903;DHT22;5504;47.312;11.060;2023-05-29T08:26:56;24.60;61.30
10903;DHT22;5504;47.312;11.060;2023-05-29T08:29:22;25.00;61.60
10903;DHT22;5504;47.312;11.060;2023-05-29T08:31:48;24.60;55.20
10903;DHT22;5504;47.312;11.060;2023-05-29T08:34:14;23.50;57.80
10903;DHT22;5504;47.312;11.060;2023-05-29T08:36:39;23.70;56.50
10903;DHT22;5504;47.312;11.060;2023-05-29T08:39:07;23.10;56.20
10903;DHT22;5504;47.312;11.060;2023-05-29T08:42:04;23.70;62.80
10903;DHT22;5504;47.312;11.060;2023-05-29T08:44:32;24.20;56.10
10903;DHT22;5504;47.312;11.060;2023-05-29T08:47:01;24.70;55.40
10903;DHT22;5504;47.312;11.060;2023-05-29T08:49:41;24.90;55.90
10903;DHT22;5504;47.312;11.060;2023-05-29T08:52:14;25.60;58.40
10903;DHT22;5504;47.312;11.060;2023-05-29T08:54:40;25.10;53.50
10903;DHT22;5504;47.312;11.060;2023-05-29T08:57:07;25.10;54.00
10903;DHT22;5504;47.312;11.060;2023-05-29T08:59:33;24.40;53.20
10903;DHT22;5504;47.312;11.060;2023-05-29T09:02:00;24.90;57.50
10903;DHT22;5504;47.312;11.060;2023-05-29T09:04:28;25.40;56.00
10903;DHT22;5504;47.312;11.060;2023-05-29T09:06:56;26.10;57.70
10903;DHT22;5504;47.312;11.060;2023-05-29T09:09:22;26.30;52.40
10903;DHT22;5504;47.312;11.060;2023-05-29T09:11:49;26.20;51.90
10903;DHT22;5504;47.312;11.060;2023-05-29T09:17:00;25.60;56.00
10903;DHT22;5504;47.312;11.060;2023-05-29T09:19:26;26.50;56.30
10903;DHT22;5504;47.312;11.060;2023-05-29T09:21:54;25.70;54.60
10903;DHT22;5504;47.312;11.060;2023-05-29T09:24:26;26.30;53.10
10903;DHT22;5504;47.312;11.060;2023-05-29T09:26:52;27.00;55.50
10903;DHT22;5504;47.312;11.060;2023-05-29T09:29:19;26.80;52.00
10903;DHT22;5504;47.312;11.060;2023-05-29T09:31:48;27.00;52.70
10903;DHT22;5504;47.312;11.060;2023-05-29T09:34:15;25.80;51.50
10903;DHT22;5504;47.312;11.060;2023-05-29T09:36:41;26.60;56.80
10903;DHT22;5504;47.312;11.060;2023-05-29T09:39:07;27.00;54.40
10903;DHT22;5504;47.312;11.060;2023-05-29T09:41:45;27.60;53.50
10903;DHT22;5504;47.312;11.060;2023-05-29T09:44:14;27.50;53.40
10903;DHT22;5504;47.312;11.060;2023-05-29T09:46:41;27.80;52.90
10903;DHT22;5504;47.312;11.060;2023-05-29T09:49:13;28.10;52.80
10903;DHT22;5504;47.312;11.060;2023-05-29T09:51:40;27.50;51.80
10903;DHT22;5504;47.312;11.060;2023-05-29T09:54:14;27.80;52.90
10903;DHT22;5504;47.312;11.060;2023-05-29T09:56:42;28.00;51.30
10903;DHT22;5504;47.312;11.060;2023-05-29T09:59:11;28.30;51.90
10903;DHT22;5504;47.312;11.060;2023-05-29T10:01:40;28.70;52.70
10903;DHT22;5504;47.312;11.060;2023-05-29T10:04:08;28.50;48.00
10903;DHT22;5504;47.312;11.060;2023-05-29T10:06:44;27.60;49.10
10903;DHT22;5504;47.312;11.060;2023-05-29T10:09:12;27.40;50.30
10903;DHT22;5504;47.312;11.060;2023-05-29T10:11:43;28.20;52.00
10903;DHT22;5504;47.312;11.060;2023-05-29T10:14:16;28.60;53.10
10903;DHT22;5504;47.312;11.060;2023-05-29T10:16:46;28.70;50.20
10903;DHT22;5504;47.312;11.060;2023-05-29T10:19:15;29.50;52.90
10903;DHT22;5504;47.312;11.060;2023-05-29T10:21:44;29.20;46.60
10903;DHT22;5504;47.312;11.060;2023-05-29T10:24:11;29.30;51.00
10903;DHT22;5504;47.312;11.060;2023-05-29T10:26:39;28.00;47.90
10903;DHT22;5504;47.312;11.060;2023-05-29T10:32:05;28.80;46.10
10903;DHT22;5504;47.312;11.060;2023-05-29T10:39:32;29.80;43.60
10903;DHT22;5504;47.312;11.060;2023-05-29T10:41:59;30.10;45.60
10903;DHT22;5504;47.312;11.060;2023-05-29T10:44:38;29.70;43.60
10903;DHT22;5504;47.312;11.060;2023-05-29T10:47:07;29.10;44.90
10903;DHT22;5504;47.312;11.060;2023-05-29T10:49:34;29.50;49.20
10903;DHT22;5504;47.312;11.060;2023-05-29T10:52:00;29.80;49.20
10903;DHT22;5504;47.312;11.060;2023-05-29T10:54:40;29.60;45.70
10903;DHT22;5504;47.312;11.060;2023-05-29T10:57:07;28.00;46.80
10903;DHT22;5504;47.312;11.060;2023-05-29T10:59:37;28.10;46.30
10903;DHT22;5504;47.312;11.060;2023-05-29T11:02:04;28.10;47.50
10903;DHT22;5504;47.312;11.060;2023-05-29T11:04:31;28.40;48.90
10903;DHT22;5504;47.312;11.060;2023-05-29T11:06:58;27.70;47.10
10903;DHT22;5504;47.312;11.060;2023-05-29T11:09:44;28.00;47.50
10903;DHT22;5504;47.312;11.060;2023-05-29T11:12:22;29.20;50.10
10903;DHT22;5504;47.312;11.060;2023-05-29T11:15:09;29.20;45.90
10903;DHT22;5504;47.312;11.060;2023-05-29T11:20:24;29.20;48.00
10903;DHT22;5504;47.312;11.060;2023-05-29T11:25:24;28.20;46.90
10903;DHT22;5504;47.312;11.060;2023-05-29T11:27:51;29.40;47.70
10903;DHT22;5504;47.312;11.060;2023-05-29T11:30:20;29.40;44.70
10903;DHT22;5504;47.312;11.060;2023-05-29T11:32:46;29.40;48.40
10903;DHT22;5504;47.312;11.060;2023-05-29T11:35:13;30.40;52.00
10903;DHT22;5504;47.312;11.060;2023-05-29T11:37:43;30.90;47.40
10903;DHT22;5504;47.312;11.060;2023-05-29T11:40:11;31.40;47.40
10903;DHT22;5504;47.312;11.060;2023-05-29T11:42:43;30.10;43.50
10903;DHT22;5504;47.312;11.060;2023-05-29T11:45:17;29.60;47.10
10903;DHT22;5504;47.312;11.060;2023-05-29T11:48:10;29.80;45.80
10903;DHT22;5504;47.312;11.060;2023-05-29T11:50:36;29.70;43.60
10903;DHT22;5504;47.312;11.060;2023-05-29T11:53:02;30.30;47.80
10903;DHT22;5504;47.312;11.060;2023-05-29T11:55:28;30.00;45.70
10903;DHT22;5504;47.312;11.060;2023-05-29T11:58:01;29.80;44.90
10903;DHT22;5504;47.312;11.060;2023-05-29T12:00:32;29.50;46.70
10903;DHT22;5504;47.312;11.060;2023-05-29T12:02:59;29.10;44.00
10903;DHT22;5504;47.312;11.060;2023-05-29T12:05:29;29.20;44.40
10903;DHT22;5504;47.312;11.060;2023-05-29T12:07:56;29.30;45.20
10903;DHT22;5504;47.312;11.060;2023-05-29T12:10:22;28.70;44.70
10903;DHT22;5504;47.312;11.060;2023-05-29T12:12:59;28.00;44.70
10903;DHT22;5504;47.312;11.060;2023-05-29T12:15:26;28.60;46.60
10903;DHT22;5504;47.312;11.060;2023-05-29T12:17:54;29.20;45.80
10903;DHT22;5504;47.312;11.060;2023-05-29T12:20:23;29.40;43.60
10903;DHT22;5504;47.312;11.060;2023-05-29T12:22:49;28.50;43.60
10903;DHT22;5504;47.312;11.060;2023-05-29T12:25:16;28.20;46.70
10903;DHT22;5504;47.312;11.060;2023-05-29T12:27:44;27.30;44.50
10903;DHT22;5504;47.312;11.060;2023-05-29T12:32:45;27.30;44.50
10903;DHT22;5504;47.312;11.060;2023-05-29T12:35:21;26.90;44.50
10903;DHT22;5504;47.312;11.060;2023-05-29T12:43:05;28.20;47.70
10903;DHT22;5504;47.312;11.060;2023-05-29T12:45:32;28.50;43.50
10903;DHT22;5504;47.312;11.060;2023-05-29T12:48:03;28.50;47.40
10903;DHT22;5504;47.312;11.060;2023-05-29T12:50:39;29.10;47.20
10903;DHT22;5504;47.312;11.060;2023-05-29T12:53:12;29.70;46.00
10903;DHT22;5504;47.312;11.060;2023-05-29T12:55:40;30.10;44.20
10903;DHT22;5504;47.312;11.060;2023-05-29T12:58:16;29.40;46.20
10903;DHT22;5504;47.312;11.060;2023-05-29T13:00:43;29.90;42.60
10903;DHT22;5504;47.312;11.060;2023-05-29T13:03:09;28.80;44.50
10903;DHT22;5504;47.312;11.060;2023-05-29T13:05:36;29.10;42.60
10903;DHT22;5504;47.312;11.060;2023-05-29T13:08:02;28.50;45.40
10903;DHT22;5504;47.312;11.060;2023-05-29T13:10:30;28.80;43.70
10903;DHT22;5504;47.312;11.060;2023-05-29T13:12:56;29.20;42.90
10903;DHT22;5504;47.312;11.060;2023-05-29T13:15:25;29.40;44.50
10903;DHT22;5504;47.312;11.060;2023-05-29T13:17:52;29.50;41.40
10903;DHT22;5504;47.312;11.060;2023-05-29T13:20:19;29.30;43.10
10903;DHT22;5504;47.312;11.060;2023-05-29T13:22:46;29.40;45.40
10903;DHT22;5504;47.312;11.060;2023-05-29T13:25:14;29.30;43.50
10903;DHT22;5504;47.312;11.060;2023-05-29T13:27:44;29.00;45.60
10903;DHT22;5504;47.312;11.060;2023-05-29T13:30:11;29.20;43.60
10903;DHT22;5504;47.312;11.060;2023-05-29T13:32:38;28.80;41.60
10903;DHT22;5504;47.312;11.060;2023-05-29T13:35:04;28.30;44.10
10903;DHT22;5504;47.312;11.060;2023-05-29T13:37:31;28.50;44.20
10903;DHT22;5504;47.312;11.060;2023-05-29T13:39:56;28.50;42.60
10903;DHT22;5504;47.312;11.060;2023-05-29T13:42:22;28.10;44.10
10903;DHT22;5504;47.312;11.060;2023-05-29T13:44:49;28.50;45.60
10903;DHT22;5504;47.312;11.060;2023-05-29T13:47:15;28.80;43.70
10903;DHT22;5504;47.312;11.060;2023-05-29T13:49:42;28.60;45.00
10903;DHT22;5504;47.312;11.060;2023-05-29T13:52:08;28.50;44.30
10903;DHT22;5504;47.312;11.060;2023-05-29T13:54:33;28.80;45.60
10903;DHT22;5504;47.312;11.060;2023-05-29T13:57:03;28.50;42.80
10903;DHT22;5504;47.312;11.060;2023-05-29T13:59:32;27.70;43.30
10903;DHT22;5504;47.312;11.060;2023-05-29T14:01:58;27.60;44.90
10903;DHT22;5504;47.312;11.060;2023-05-29T14:04:25;27.20;45.10
10903;DHT22;5504;47.312;11.060;2023-05-29T14:06:51;27.30;45.10
10903;DHT22;5504;47.312;11.060;2023-05-29T14:09:17;27.20;45.50
10903;DHT22;5504;47.312;11.060;2023-05-29T14:11:48;27.40;44.40
10903;DHT22;5504;47.312;11.060;2023-05-29T14:14:13;27.00;44.60
10903;DHT22;5504;47.312;11.060;2023-05-29T14:16:41;27.00;44.30
10903;DHT22;5504;47.312;11.060;2023-05-29T14:19:06;26.50;45.70
10903;DHT22;5504;47.312;11.060;2023-05-29T14:21:32;26.20;45.50
10903;DHT22;5504;47.312;11.060;2023-05-29T14:23:58;26.30;45.20
10903;DHT22;5504;47.312;11.060;2023-05-29T14:26:23;26.50;45.00
10903;DHT22;5504;47.312;11.060;2023-05-29T14:28:49;26.80;45.90
10903;DHT22;5504;47.312;11.060;2023-05-29T14:31:15;26.80;45.10
10903;DHT22;5504;47.312;11.060;2023-05-29T14:33:41;26.70;45.10
10903;DHT22;5504;47.312;11.060;2023-05-29T14:36:07;26.80;45.30
10903;DHT22;5504;47.312;11.060;2023-05-29T14:38:33;27.10;45.70
10903;DHT22;5504;47.312;11.060;2023-05-29T14:40:58;27.00;46.10
10903;DHT22;5504;47.312;11.060;2023-05-29T14:43:24;27.10;45.40
10903;DHT22;5504;47.312;11.060;2023-05-29T14:45:50;27.10;46.30
10903;DHT22;5504;47.312;11.060;2023-05-29T14:48:15;26.50;44.70
10903;DHT22;5504;47.312;11.060;2023-05-29T14:50:42;26.10;45.30
10903;DHT22;5504;47.312;11.060;2023-05-29T14:53:07;25.90;45.20
10903;DHT22;5504;47.312;11.060;2023-05-29T14:55:33;25.70;45.70
10903;DHT22;5504;47.312;11.060;2023-05-29T14:58:06;25.60;45.70
10903;DHT22;5504;47.312;11.060;2023-05-29T15:00:32;26.00;45.20
10903;DHT22;5504;47.312;11.060;2023-05-29T15:02:57;26.10;45.20
10903;DHT22;5504;47.312;11.060;2023-05-29T15:05:25;26.10;45.10
10903;DHT22;5504;47.312;11.060;2023-05-29T15:07:51;25.90;45.00
10903;DHT22;5504;47.312;11.060;2023-05-29T15:10:20;26.00;44.70
10903;DHT22;5504;47.312;11.060;2023-05-29T15:12:47;25.90;45.20
10903;DHT22;5504;47.312;11.060;2023-05-29T15:15:12;25.80;45.70
10903;DHT22;5504;47.312;11.060;2023-05-29T15:17:38;25.30;45.50
10903;DHT22;5504;47.312;11.060;2023-05-29T15:20:05;25.30;46.10
10903;DHT22;5504;47.312;11.060;2023-05-29T15:22:31;25.10;45.50
10903;DHT22;5504;47.312;11.060;2023-05-29T15:24:57;25.20;46.20
10903;DHT22;5504;47.312;11.060;2023-05-29T15:27:22;25.30;45.30
10903;DHT22;5504;47.312;11.060;2023-05-29T15:29:52;25.40;46.10
10903;DHT22;5504;47.312;11.060;2023-05-29T15:32:18;25.60;45.10
10903;DHT22;5504;47.312;11.060;2023-05-29T15:34:43;25.80;45.20
10903;DHT22;5504;47.312;11.060;2023-05-29T15:37:09;25.80;47.10
10903;DHT22;5504;47.312;11.060;2023-05-29T15:39:35;25.80;47.20
10903;DHT22;5504;47.312;11.060;2023-05-29T15:42:03;26.00;45.70
10903;DHT22;5504;47.312;11.060;2023-05-29T15:44:29;25.80;44.50
10903;DHT22;5504;47.312;11.060;2023-05-29T15:46:55;25.70;45.20
10903;DHT22;5504;47.312;11.060;2023-05-29T15:49:20;25.60;45.80
10903;DHT22;5504;47.312;11.060;2023-05-29T15:51:46;25.80;45.10
10903;DHT22;5504;47.312;11.060;2023-05-29T15:54:12;25.90;45.50
10903;DHT22;5504;47.312;11.060;2023-05-29T15:56:37;25.90;45.10